4XCHA LLHZ-LLHZ

Flight info

Callsign 4XCHA
Flight time 0h 1m
Altitude 0800
Route CIRCUITS
Aircraft C172/L-SD/C

Departure

Time 2026-04-12 15:01
Airport Herzliya Airport (LLHZ)

Arrival

Time 2026-04-12 15:02
Airport Herzliya Airport (LLHZ)
Time Latitude Longitude Altitude Speed Heading
2026-04-12 14:54 32.18076 34.83119 98 ft 0 kts 20°
2026-04-12 14:57 32.18077 34.83119 98 ft 2 kts 20°
2026-04-12 14:57 32.18067 34.83212 100 ft 20 kts 109°
2026-04-12 14:58 32.18016 34.83386 104 ft 23 kts 109°
2026-04-12 14:58 32.17970 34.83541 108 ft 18 kts 108°
2026-04-12 14:58 32.17935 34.83658 112 ft 12 kts 109°
2026-04-12 14:58 32.17912 34.83739 117 ft 10 kts 108°
2026-04-12 14:59 32.17887 34.83819 118 ft 11 kts 111°
2026-04-12 14:59 32.17882 34.83838 119 ft 0 kts 102°
2026-04-12 14:59 32.17881 34.83841 120 ft 2 kts 97°
2026-04-12 15:00 32.18010 34.83523 118 ft 65 kts 286°
2026-04-12 15:00 32.18192 34.83014 359 ft 66 kts 307°
2026-04-12 15:00 32.18654 34.82757 518 ft 82 kts 356°
2026-04-12 15:01 32.19187 34.82958 737 ft 92 kts 40°
2026-04-12 15:01 32.19341 34.83740 829 ft 111 kts 106°
2026-04-12 15:01 32.19158 34.84609 871 ft 110 kts 109°
2026-04-12 15:01 32.18777 34.84987 854 ft 67 kts 207°
2026-04-12 15:02 32.18414 34.84685 671 ft 63 kts 225°
2026-04-12 15:02 32.18047 34.84412 451 ft 64 kts 214°
2026-04-12 15:02 32.17879 34.83980 199 ft 66 kts 280°
2026-04-12 15:02 32.18007 34.83531 106 ft 44 kts 284°
2026-04-12 15:03 32.18137 34.83072 193 ft 64 kts 284°
2026-04-12 15:03 32.18465 34.82716 392 ft 76 kts 351°
2026-04-12 15:03 32.19001 34.82869 587 ft 84 kts 16°
2026-04-12 15:03 32.19381 34.83401 794 ft 95 kts 82°
2026-04-12 15:04 32.19248 34.84205 848 ft 106 kts 114°
2026-04-12 15:04 32.18965 34.84964 986 ft 76 kts 161°
2026-04-12 15:04 32.18535 34.84851 792 ft 63 kts 219°
2026-04-12 15:04 32.18159 34.84584 614 ft 62 kts 217°
2026-04-12 15:05 32.17831 34.84266 334 ft 64 kts 263°
2026-04-12 15:05 32.17947 34.83744 124 ft 60 kts 287°
2026-04-12 15:05 32.18063 34.83345 101 ft 58 kts 289°
2026-04-12 15:05 32.18239 34.82844 287 ft 68 kts 312°
2026-04-12 15:06 32.18734 34.82743 488 ft 77 kts 357°
2026-04-12 15:06 32.19229 34.82982 691 ft 90 kts 48°
2026-04-12 15:06 32.19355 34.83721 820 ft 104 kts 106°
2026-04-12 15:06 32.19175 34.84574 827 ft 106 kts 108°
2026-04-12 15:07 32.18890 34.85298 870 ft 82 kts 158°
2026-04-12 15:07 32.18363 34.85371 657 ft 81 kts 195°
2026-04-12 15:07 32.17833 34.85224 594 ft 73 kts 205°
2026-04-12 15:07 32.17625 34.84824 447 ft 62 kts 269°
2026-04-12 15:08 32.17774 34.84326 279 ft 64 kts 285°
2026-04-12 15:08 32.17921 34.83826 130 ft 62 kts 287°
2026-04-12 15:08 32.18033 34.83441 104 ft 52 kts 289°
2026-04-12 15:08 32.18202 34.82943 259 ft 68 kts 305°
2026-04-12 15:09 32.18658 34.82748 453 ft 80 kts 359°
2026-04-12 15:09 32.19199 34.82932 663 ft 91 kts 34°
2026-04-12 15:09 32.19396 34.83666 841 ft 101 kts 96°
2026-04-12 15:09 32.19226 34.84537 845 ft 112 kts 116°
2026-04-12 15:10 32.18828 34.85322 883 ft 112 kts 154°
2026-04-12 15:10 32.18089 34.85357 836 ft 107 kts 200°
2026-04-12 15:10 32.17626 34.84897 623 ft 94 kts 269°
2026-04-12 15:10 32.17833 34.84114 213 ft 99 kts 285°
2026-04-12 15:11 32.18055 34.83390 314 ft 90 kts 287°
2026-04-12 15:11 32.18365 34.82816 617 ft 89 kts 330°
2026-04-12 15:11 32.19006 34.82846 845 ft 98 kts
2026-04-12 15:11 32.19453 34.83521 859 ft 125 kts 91°
2026-04-12 15:12 32.19194 34.84511 836 ft 123 kts 117°
2026-04-12 15:12 32.18797 34.85325 835 ft 105 kts 155°
2026-04-12 15:12 32.18147 34.85333 797 ft 91 kts 200°
2026-04-12 15:12 32.17655 34.85033 792 ft 70 kts 247°
2026-04-12 15:13 32.17725 34.84454 339 ft 68 kts 289°
2026-04-12 15:13 32.17877 34.83974 162 ft 60 kts 287°
2026-04-12 15:13 32.17996 34.83569 108 ft 41 kts 291°
2026-04-12 15:13 32.18128 34.83125 163 ft 69 kts 285°
2026-04-12 15:14 32.18477 34.82771 384 ft 80 kts 351°
2026-04-12 15:14 32.19041 34.82885 624 ft 85 kts 14°
2026-04-12 15:14 32.19394 34.83500 756 ft 104 kts 90°
2026-04-12 15:14 32.19232 34.84389 812 ft 115 kts 110°
2026-04-12 15:15 32.18979 34.85230 870 ft 96 kts 133°
2026-04-12 15:15 32.18474 34.85410 697 ft 70 kts 196°
2026-04-12 15:15 32.17999 34.85266 531 ft 73 kts 204°
2026-04-12 15:15 32.17646 34.84960 433 ft 59 kts 263°
2026-04-12 15:16 32.17736 34.84465 299 ft 66 kts 286°
2026-04-12 15:16 32.17874 34.83984 161 ft 59 kts 285°
2026-04-12 15:16 32.17990 34.83598 109 ft 35 kts 287°
2026-04-12 15:16 32.18123 34.83157 168 ft 68 kts 289°
2026-04-12 15:17 32.18391 34.82727 411 ft 73 kts 331°
2026-04-12 15:17 32.18925 34.82696 612 ft 84 kts
2026-04-12 15:17 32.19376 34.83149 795 ft 98 kts 69°
2026-04-12 15:17 32.19332 34.84021 840 ft 116 kts 108°
2026-04-12 15:18 32.19089 34.84949 889 ft 113 kts 114°
2026-04-12 15:18 32.18607 34.85422 750 ft 86 kts 191°
2026-04-12 15:18 32.18089 34.85324 637 ft 73 kts 202°
2026-04-12 15:18 32.17668 34.85067 464 ft 66 kts 245°
2026-04-12 15:19 32.17719 34.84534 316 ft 73 kts 284°
2026-04-12 15:19 32.17882 34.83956 164 ft 73 kts 288°
2026-04-12 15:19 32.18038 34.83430 123 ft 69 kts 287°
2026-04-12 15:19 32.18274 34.82893 352 ft 78 kts 320°
2026-04-12 15:20 32.18835 34.82808 596 ft 86 kts
2026-04-12 15:20 32.19332 34.83194 800 ft 99 kts 64°
2026-04-12 15:20 32.19300 34.84038 831 ft 108 kts 109°
2026-04-12 15:20 32.19109 34.84872 857 ft 96 kts 110°
2026-04-12 15:21 32.18772 34.85420 737 ft 76 kts 174°
2026-04-12 15:21 32.18262 34.85338 551 ft 75 kts 201°
2026-04-12 15:21 32.17779 34.85178 490 ft 66 kts 211°
2026-04-12 15:21 32.17671 34.84695 362 ft 72 kts 286°
2026-04-12 15:22 32.17830 34.84134 216 ft 72 kts 287°
2026-04-12 15:22 32.17989 34.83608 113 ft 60 kts 288°
2026-04-12 15:22 32.18114 34.83122 197 ft 64 kts 285°
2026-04-12 15:22 32.18440 34.82738 409 ft 77 kts 343°
2026-04-12 15:23 32.19003 34.82827 663 ft 79 kts
2026-04-12 15:23 32.19444 34.83288 791 ft 102 kts 78°
2026-04-12 15:23 32.19327 34.84141 822 ft 112 kts 111°
2026-04-12 15:23 32.19105 34.85007 872 ft 102 kts 112°
2026-04-12 15:24 32.18716 34.85449 746 ft 70 kts 193°
2026-04-12 15:24 32.18248 34.85327 544 ft 71 kts 202°
2026-04-12 15:24 32.17786 34.85139 416 ft 70 kts 219°
2026-04-12 15:24 32.17676 34.84685 318 ft 62 kts 283°
2026-04-12 15:25 32.17813 34.84196 217 ft 61 kts 285°
2026-04-12 15:25 32.17950 34.83735 116 ft 50 kts 289°
2026-04-12 15:25 32.18027 34.83471 105 ft 17 kts 287°
2026-04-12 15:25 32.18058 34.83348 101 ft 13 kts 258°
2026-04-12 15:26 32.18042 34.83295 102 ft 2 kts 287°
2026-04-12 15:26 32.18041 34.83275 101 ft 4 kts 235°
2026-04-12 15:27 32.18035 34.83270 101 ft 0 kts 194°